Time;durP1;ratioP1;P1;durP2;ratioP2;P2;SDS_P1;SDS_P2;PMS_P1;PMS_P2;Temp;Humidity;BMP_temperature;BMP_pressure;BME280_temperature;BME280_humidity;BME280_pressure;Samples;Min_cycle;Max_cycle;Signal;HPM_P1;HPM_P2
2021/04/21 00:00:24;;;;;;;17.02;9.80;;;;;;;7.50;83.42;98263.77;1791753;80;21146;-74
2021/04/21 00:02:55;;;;;;;12.73;8.90;;;;;;;7.48;83.47;98253.94;1810402;78;21174;-70
2021/04/21 00:05:25;;;;;;;16.77;10.55;;;;;;;7.42;83.43;98255.13;1791561;80;21169;-70
2021/04/21 00:07:55;;;;;;;18.70;10.45;;;;;;;7.33;83.66;98260.17;1791443;80;21162;-73
2021/04/21 00:10:26;;;;;;;15.35;10.35;;;;;;;7.28;83.83;98259.25;1810340;78;21584;-71
2021/04/21 00:12:55;;;;;;;13.72;10.45;;;;;;;7.24;84.03;98262.61;1786443;80;21316;-70
2021/04/21 00:15:24;;;;;;;15.95;10.70;;;;;;;7.16;84.33;98262.08;1791484;80;21146;-71
2021/04/21 00:18:03;;;;;;;15.28;10.72;;;;;;;7.10;84.50;98270.99;1810297;79;21147;-71
2021/04/21 00:20:32;;;;;;;15.20;10.68;;;;;;;7.06;84.73;98269.22;1791707;80;21552;-70
2021/04/21 00:23:06;;;;;;;17.80;11.30;;;;;;;7.04;84.89;98272.17;1791822;80;21572;-71
2021/04/21 00:25:36;;;;;;;18.57;12.13;;;;;;;7.06;84.98;98279.47;1809930;79;21193;-72
2021/04/21 00:28:05;;;;;;;15.55;11.33;;;;;;;7.09;85.05;98273.52;1791059;80;21577;-72
2021/04/21 00:30:35;;;;;;;16.05;11.20;;;;;;;7.10;85.05;98282.54;1791151;80;21177;-70
2021/04/21 00:33:05;;;;;;;16.82;11.10;;;;;;;7.06;85.10;98278.19;1809970;79;21601;-67
2021/04/21 00:35:38;;;;;;;17.05;10.53;;;;;;;7.03;85.33;98276.88;1790834;80;21153;-74
2021/04/21 00:38:16;;;;;;;12.80;9.53;;;;;;;6.97;85.40;98274.20;1790716;80;21296;-73
2021/04/21 00:40:49;;;;;;;15.03;9.68;;;;;;;6.94;85.54;98274.17;1810138;79;21143;-75
2021/04/21 00:43:49;;;;;;;12.43;9.23;;;;;;;6.94;85.66;98279.30;1791327;80;21552;-73
2021/04/21 00:46:33;;;;;;;16.42;10.18;;;;;;;6.96;85.71;98277.63;1791021;80;21138;-77
2021/04/21 00:49:25;;;;;;;13.13;10.03;;;;;;;6.94;85.75;98284.00;1760162;80;21387;-73
2021/04/21 00:51:58;;;;;;;14.40;9.98;;;;;;;6.94;85.76;98289.56;1809952;79;21166;-74
2021/04/21 00:54:43;;;;;;;16.35;9.95;;;;;;;6.92;85.87;98288.66;1790969;80;21315;-75
2021/04/21 00:57:15;;;;;;;13.62;10.15;;;;;;;6.90;85.93;98281.40;1767932;80;21161;-73
2021/04/21 01:00:05;;;;;;;14.98;10.23;;;;;;;6.93;85.99;98287.84;1766112;79;21127;-72
2021/04/21 01:02:45;;;;;;;14.98;10.70;;;;;;;6.92;85.96;98289.55;1790519;80;21551;-75
2021/04/21 01:05:18;;;;;;;16.07;9.85;;;;;;;6.90;85.97;98288.66;1809935;79;21142;-73
2021/04/21 01:07:51;;;;;;;15.00;9.83;;;;;;;6.91;86.03;98294.65;1790858;80;21165;-74
2021/04/21 01:10:20;;;;;;;16.37;10.43;;;;;;;6.92;86.10;98292.52;1791058;80;21154;-75
2021/04/21 01:12:52;;;;;;;17.73;9.60;;;;;;;6.88;86.27;98286.92;1757880;80;21115;-73
2021/04/21 01:15:21;;;;;;;13.88;9.85;;;;;;;6.87;86.39;98285.17;1823148;77;21130;-75
2021/04/21 01:17:52;;;;;;;12.58;9.60;;;;;;;6.81;86.50;98292.36;1821722;79;21548;-75
2021/04/21 01:20:30;;;;;;;13.68;9.35;;;;;;;6.76;86.71;98289.29;1821406;79;21134;-76
2021/04/21 01:23:45;;;;;;;11.75;8.78;;;;;;;6.71;86.88;98291.36;1821517;79;21154;-73
2021/04/21 01:26:30;;;;;;;14.18;8.83;;;;;;;6.69;87.05;98288.33;1821552;79;21106;-74
2021/04/21 01:29:00;;;;;;;14.35;9.85;;;;;;;6.69;87.23;98294.34;1820497;79;21738;-71
2021/04/21 01:31:33;;;;;;;13.00;9.15;;;;;;;6.66;87.33;98290.84;1816478;79;21608;-72
2021/04/21 01:34:05;;;;;;;16.27;9.43;;;;;;;6.66;87.38;98295.55;1821527;79;21166;-74
2021/04/21 01:36:34;;;;;;;12.05;8.75;;;;;;;6.64;87.43;98293.41;1821557;79;21150;-73
2021/04/21 01:39:05;;;;;;;12.25;8.88;;;;;;;6.62;87.56;98289.95;1816523;79;21216;-72
2021/04/21 01:41:41;;;;;;;14.38;9.20;;;;;;;6.60;87.68;98293.33;1821799;79;21173;-74
2021/04/21 01:44:16;;;;;;;13.13;9.05;;;;;;;6.58;87.82;98302.27;1821799;79;21690;-74
2021/04/21 01:46:48;;;;;;;14.60;9.33;;;;;;;6.59;87.94;98296.31;1821477;79;21146;-71
2021/04/21 01:49:29;;;;;;;;;;;;;;;6.56;88.02;98300.09;1824487;79;21166;-74
2021/04/21 01:52:16;;;;;;;12.88;9.85;;;;;;;6.53;88.12;98301.33;1817965;79;20133;-70
2021/04/21 01:54:48;;;;;;;14.20;9.50;;;;;;;6.47;88.34;98308.93;1815114;79;21296;-70
2021/04/21 01:57:42;;;;;;;14.80;9.10;;;;;;;6.45;88.57;98306.75;1821388;79;21370;-72
2021/04/21 02:00:27;;;;;;;13.72;9.73;;;;;;;6.40;88.66;98306.67;1821644;79;21110;-71
2021/04/21 02:03:18;;;;;;;14.07;8.48;;;;;;;6.39;88.78;98307.52;1821202;79;21272;-72
2021/04/21 02:06:25;;;;;;;13.50;8.75;;;;;;;6.38;88.94;98304.92;1808939;79;21118;-71
2021/04/21 02:09:19;;;;;;;13.48;9.15;;;;;;;6.35;89.04;98308.72;1821301;79;21161;-72
2021/04/21 02:12:09;;;;;;;15.98;10.13;;;;;;;6.32;89.22;98303.55;1819204;79;21548;-73
2021/04/21 02:15:06;;;;;;;14.50;9.78;;;;;;;6.26;89.39;98305.17;1814479;79;21153;-77
2021/04/21 02:17:45;;;;;;;13.58;10.13;;;;;;;6.26;89.47;98303.89;1812426;79;21261;-77
2021/04/21 02:20:36;;;;;;;12.70;9.50;;;;;;;6.29;89.54;98306.49;1812624;79;22029;-75
2021/04/21 02:23:11;;;;;;;12.73;8.18;;;;;;;6.30;89.57;98307.34;1812178;79;21275;-78
2021/04/21 02:26:29;;;;;;;12.95;8.88;;;;;;;6.29;89.63;98303.93;1813071;79;21713;-72
2021/04/21 02:29:05;;;;;;;13.38;9.03;;;;;;;6.29;89.68;98300.09;1812843;79;21154;-74
2021/04/21 02:32:01;;;;;;;15.13;9.20;;;;;;;6.22;89.77;98298.25;1812971;79;21275;-72
2021/04/21 02:35:02;;;;;;;13.93;9.60;;;;;;;6.18;89.86;98301.61;1812670;79;21142;-75
2021/04/21 02:38:00;;;;;;;14.20;10.43;;;;;;;6.12;90.10;98300.20;1811987;79;21280;-75
2021/04/21 02:41:02;;;;;;;15.30;9.23;;;;;;;6.08;90.41;98303.53;1774058;81;21284;-74
2021/04/21 02:43:54;;;;;;;14.43;8.98;;;;;;;6.03;90.60;98306.04;1812709;79;21272;-68
2021/04/21 02:46:42;;;;;;;13.40;8.90;;;;;;;6.03;90.73;98307.71;1813053;79;21139;-70
2021/04/21 02:49:34;;;;;;;13.15;8.55;;;;;;;6.01;90.91;98315.81;1812722;79;21146;-70
2021/04/21 02:52:27;;;;;;;13.70;8.30;;;;;;;6.02;90.98;98311.12;1812699;79;21147;-75
2021/04/21 02:55:09;;;;;;;11.97;8.75;;;;;;;6.05;91.04;98321.41;1812978;79;21143;-67
2021/04/21 02:57:49;;;;;;;12.75;9.00;;;;;;;6.04;91.06;98328.24;1812701;79;21311;-67
2021/04/21 03:00:37;;;;;;;13.85;8.88;;;;;;;6.05;91.05;98326.54;1812725;79;21285;-67
2021/04/21 03:03:48;;;;;;;14.15;8.33;;;;;;;6.05;91.09;98327.81;1812176;79;21122;-67
2021/04/21 03:06:30;;;;;;;14.38;8.95;;;;;;;6.03;91.16;98328.20;1812852;79;21272;-66
2021/04/21 03:09:06;;;;;;;13.50;9.03;;;;;;;6.04;91.31;98333.79;1813108;79;21147;-67
2021/04/21 03:11:34;;;;;;;13.70;9.15;;;;;;;6.07;91.29;98332.56;1812953;79;21280;-67
2021/04/21 03:14:08;;;;;;;12.13;9.00;;;;;;;6.10;91.30;98333.89;1816442;79;21145;-66
2021/04/21 03:16:42;;;;;;;12.93;9.88;;;;;;;6.16;91.23;98335.73;1782386;80;21142;-67
2021/04/21 03:19:13;;;;;;;13.38;9.55;;;;;;;6.20;91.14;98337.48;1821429;79;21142;-66
2021/04/21 03:21:54;;;;;;;;;;;;;;;6.16;91.04;98335.73;1824003;79;21370;-67
2021/04/21 03:24:25;;;;;;;13.30;8.88;;;;;;;6.07;91.17;98340.24;1820666;79;20228;-68
2021/04/21 03:26:58;;;;;;;13.60;8.83;;;;;;;6.02;91.36;98342.71;1821447;79;21146;-75
2021/04/21 03:29:32;;;;;;;13.40;9.78;;;;;;;6.05;91.44;98348.31;1820536;79;21516;-75
2021/04/21 03:32:03;;;;;;;13.72;8.70;;;;;;;6.05;91.47;98345.75;1820425;79;21144;-70
2021/04/21 03:34:33;;;;;;;15.93;9.13;;;;;;;6.02;91.56;98342.71;1821463;79;21173;-71
2021/04/21 03:37:02;;;;;;;12.10;9.00;;;;;;;6.03;91.70;98352.14;1821294;79;21277;-71
2021/04/21 03:39:30;;;;;;;13.28;8.48;;;;;;;6.04;91.67;98353.00;1821500;79;21572;-69
2021/04/21 03:41:57;;;;;;;14.63;9.38;;;;;;;6.07;91.74;98351.34;1821316;79;21134;-77
2021/04/21 03:44:26;;;;;;;15.88;10.28;;;;;;;6.07;91.75;98360.73;1821377;79;21118;-78
2021/04/21 03:46:53;;;;;;;13.48;8.88;;;;;;;6.07;91.78;98360.73;1821596;79;21213;-75
2021/04/21 03:49:21;;;;;;;13.18;8.30;;;;;;;6.08;91.80;98366.29;1821490;79;21589;-73
2021/04/21 03:51:49;;;;;;;18.52;8.98;;;;;;;6.08;91.78;98359.50;1821391;79;21730;-73
2021/04/21 03:54:17;;;;;;;13.65;8.75;;;;;;;6.12;91.90;98369.37;1821789;79;21259;-73
2021/04/21 03:56:46;;;;;;;15.90;8.75;;;;;;;6.18;91.81;98374.62;1821840;79;21298;-72
2021/04/21 03:59:16;;;;;;;13.03;8.60;;;;;;;6.22;91.75;98371.27;1821629;79;21564;-70
2021/04/21 04:01:47;;;;;;;13.38;9.00;;;;;;;6.30;91.69;98376.11;1821379;79;21320;-70
2021/04/21 04:04:17;;;;;;;13.88;9.60;;;;;;;6.36;91.50;98378.34;1821658;79;21130;-68
2021/04/21 04:06:48;;;;;;;12.55;9.03;;;;;;;6.36;91.22;98378.34;1821643;79;21138;-70
2021/04/21 04:09:22;;;;;;;12.58;9.58;;;;;;;6.35;91.35;98386.88;1821933;79;21114;-70
2021/04/21 04:11:54;;;;;;;12.90;8.80;;;;;;;6.36;91.25;98383.08;1821707;79;21137;-69
2021/04/21 04:14:26;;;;;;;13.28;9.23;;;;;;;6.38;91.23;98385.22;1821608;79;21532;-76
2021/04/21 04:16:55;;;;;;;;;;;;;;;6.42;91.14;98390.86;1824213;79;21122;-76
2021/04/21 04:19:24;;;;;;;13.15;9.00;;;;;;;6.44;90.97;98394.31;1821570;79;20118;-78
2021/04/21 04:22:06;;;;;;;13.22;9.65;;;;;;;6.46;90.92;98395.61;1821449;78;21690;-78
2021/04/21 04:24:46;;;;;;;17.87;9.98;;;;;;;6.45;90.79;98399.87;1821812;79;21137;-79
2021/04/21 04:27:22;;;;;;;15.45;9.83;;;;;;;6.46;90.67;98402.91;1819527;79;21287;-79
2021/04/21 04:29:51;;;;;;;15.90;10.78;;;;;;;6.49;90.68;98406.80;1821617;79;21174;-76
2021/04/21 04:32:24;;;;;;;16.12;10.45;;;;;;;6.54;90.62;98403.05;1821549;79;21320;-74
2021/04/21 04:34:59;;;;;;;14.03;9.35;;;;;;;6.57;90.33;98404.38;1821621;79;21153;-72
2021/04/21 04:37:29;;;;;;;16.48;11.53;;;;;;;6.60;90.31;98405.70;1821614;79;21142;-71
2021/04/21 04:39:57;;;;;;;14.93;11.75;;;;;;;6.69;90.21;98405.88;1821401;79;21142;-75
2021/04/21 04:42:25;;;;;;;15.55;11.30;;;;;;;6.81;90.03;98403.06;1821356;79;21157;-72
2021/04/21 04:44:54;;;;;;;14.55;10.28;;;;;;;6.90;89.66;98404.52;1821590;79;21205;-73
2021/04/21 04:47:27;;;;;;;16.62;11.43;;;;;;;6.98;89.44;98404.20;1821559;79;21268;-72
2021/04/21 04:50:12;;;;;;;15.13;11.22;;;;;;;7.02;89.11;98403.44;1815850;79;21169;-73
2021/04/21 04:52:48;;;;;;;16.65;12.23;;;;;;;7.14;89.04;98398.47;1820889;79;21118;-75
2021/04/21 04:55:18;;;;;;;15.65;11.45;;;;;;;7.37;88.72;98403.09;1820833;79;21162;-74
2021/04/21 04:57:50;;;;;;;17.60;11.63;;;;;;;7.56;88.02;98403.80;1821363;79;21161;-73
2021/04/21 05:00:22;;;;;;;15.35;11.63;;;;;;;7.68;87.24;98411.22;1821608;79;21145;-73
2021/04/21 05:03:01;;;;;;;19.65;12.20;;;;;;;7.67;86.72;98415.92;1821649;79;21560;-73
2021/04/21 05:05:30;;;;;;;17.02;11.35;;;;;;;7.65;86.20;98420.17;1821522;79;21173;-74
2021/04/21 05:08:08;;;;;;;20.10;11.03;;;;;;;7.55;86.02;98430.30;1821506;79;21299;-73
2021/04/21 05:11:05;;;;;;;14.20;11.48;;;;;;;7.55;86.06;98433.30;1821777;79;21178;-78
2021/04/21 05:13:40;;;;;;;16.85;10.88;;;;;;;7.64;86.10;98433.86;1821371;79;21229;-73
2021/04/21 05:16:28;;;;;;;16.27;12.18;;;;;;;7.72;85.81;98434.83;1821331;79;21145;-74
2021/04/21 05:19:10;;;;;;;16.35;10.63;;;;;;;7.68;85.25;98437.75;1821405;79;21291;-74
2021/04/21 05:22:03;;;;;;;14.83;11.03;;;;;;;7.63;85.40;98440.67;1821366;79;21617;-73
2021/04/21 05:25:17;;;;;;;12.87;11.03;;;;;;;7.80;85.58;98439.64;1821902;79;21552;-75
2021/04/21 05:28:11;;;;;;;15.68;10.25;;;;;;;8.02;84.63;98439.08;1821724;79;21142;-77
2021/04/21 05:31:10;;;;;;;13.13;10.05;;;;;;;8.12;84.05;98448.20;1821588;79;21572;-76
2021/04/21 05:34:29;;;;;;;18.67;10.85;;;;;;;8.11;83.94;98449.03;1821650;79;21319;-77
2021/04/21 05:37:38;;;;;;;15.83;10.90;;;;;;;8.14;83.72;98444.80;1821517;79;21228;-78
2021/04/21 05:40:46;;;;;;;15.78;10.90;;;;;;;8.21;83.60;98444.02;1821654;79;21576;-76
2021/04/21 05:43:36;;;;;;;19.45;11.08;;;;;;;8.21;83.06;98448.30;1821547;79;21154;-78
2021/04/21 05:47:00;;;;;;;17.02;10.88;;;;;;;8.12;83.09;98452.91;1817440;79;21268;-76
2021/04/21 05:50:16;;;;;;;13.53;10.08;;;;;;;8.12;83.19;98460.63;1821304;79;21149;-77
2021/04/21 05:53:11;;;;;;;15.38;10.60;;;;;;;8.09;82.93;98458.02;1821556;79;21138;-78
2021/04/21 05:56:09;;;;;;;15.32;11.10;;;;;;;8.04;83.05;98466.95;1819032;79;21643;-75
2021/04/21 05:59:03;;;;;;;15.58;11.63;;;;;;;8.11;83.21;98462.73;1821546;79;21307;-78
2021/04/21 06:01:34;;;;;;;17.95;10.95;;;;;;;8.33;83.18;98470.30;1821426;79;21153;-77
2021/04/21 06:04:02;;;;;;;20.77;10.80;;;;;;;8.45;82.79;98474.33;1821618;79;21679;-76
2021/04/21 06:06:31;;;;;;;15.13;10.48;;;;;;;8.61;82.47;98474.50;1826154;77;21581;-75
2021/04/21 06:09:08;;;;;;;14.35;10.05;;;;;;;8.69;82.12;98477.59;1838845;77;21110;-76
2021/04/21 06:11:37;;;;;;;16.25;10.40;;;;;;;8.83;81.93;98480.31;1825883;77;21675;-78
2021/04/21 06:14:07;;;;;;;14.63;10.60;;;;;;;8.92;80.97;98475.67;1820725;78;21142;-79
2021/04/21 06:16:37;;;;;;;18.45;10.13;;;;;;;8.98;80.75;98479.61;1812716;78;21552;-74
2021/04/21 06:19:08;;;;;;;13.45;9.65;;;;;;;9.08;80.42;98475.38;1822238;77;21276;-75
2021/04/21 06:21:39;;;;;;;18.50;10.82;;;;;;;9.13;79.63;98484.01;1758645;81;21719;-74
2021/04/21 06:24:26;;;;;;;13.93;10.28;;;;;;;9.09;79.07;98479.27;1827478;77;21102;-75
2021/04/21 06:27:12;;;;;;;13.85;10.48;;;;;;;9.01;79.05;98487.78;1757592;81;21567;-76
2021/04/21 06:29:40;;;;;;;13.30;8.80;;;;;;;8.94;78.87;98493.72;1812924;78;21276;-76
2021/04/21 06:32:15;;;;;;;11.45;8.53;;;;;;;8.93;78.86;98491.58;1759439;81;21168;-75
2021/04/21 06:34:44;;;;;;;15.05;9.58;;;;;;;8.94;78.58;98497.14;1819293;78;21162;-72
2021/04/21 06:37:12;;;;;;;13.88;9.25;;;;;;;9.01;78.68;98491.64;1749318;81;21150;-76
2021/04/21 06:39:40;;;;;;;13.28;9.13;;;;;;;9.17;78.41;98502.94;1753289;81;21552;-77
2021/04/21 06:42:07;;;;;;;15.98;10.00;;;;;;;9.32;78.04;98503.93;1743795;82;21161;-68
2021/04/21 06:44:42;;;;;;;17.87;9.18;;;;;;;9.49;77.58;98501.91;1812985;78;21549;-66
2021/04/21 06:47:14;;;;;;;15.80;9.98;;;;;;;9.68;77.01;98498.63;1812760;79;21245;-63
2021/04/21 06:49:43;;;;;;;14.35;10.53;;;;;;;9.94;75.97;98506.95;1813363;78;21150;-66
2021/04/21 06:52:14;;;;;;;13.40;10.03;;;;;;;10.14;75.11;98505.78;1812706;79;21143;-66
2021/04/21 06:54:46;;;;;;;14.18;10.20;;;;;;;10.19;73.91;98504.94;1821766;78;21110;-66
2021/04/21 06:57:30;;;;;;;13.20;9.58;;;;;;;10.22;73.46;98512.69;1818114;78;21106;-66
2021/04/21 07:00:15;;;;;;;15.13;9.58;;;;;;;10.35;73.21;98511.49;1821599;78;21521;-66
2021/04/21 07:02:48;;;;;;;13.78;9.58;;;;;;;10.82;71.60;98506.51;1814656;78;21118;-66
2021/04/21 07:05:36;;;;;;;11.20;7.70;;;;;;;11.11;70.44;98511.30;1825959;78;21324;-65
2021/04/21 07:08:12;;;;;;;11.30;8.10;;;;;;;11.20;69.50;98512.61;1824776;78;21146;-66
2021/04/21 07:10:48;;;;;;;12.93;9.13;;;;;;;11.22;68.21;98511.75;1750400;81;21154;-65
2021/04/21 07:13:48;;;;;;;11.68;8.63;;;;;;;11.18;68.08;98514.33;1823263;77;21094;-66
2021/04/21 07:16:25;;;;;;;13.10;9.28;;;;;;;11.14;68.15;98525.50;1824274;77;21134;-65
2021/04/21 07:19:00;;;;;;;11.33;8.40;;;;;;;11.31;68.02;98523.80;1827172;77;21142;-66
2021/04/21 07:21:29;;;;;;;13.03;8.48;;;;;;;11.48;67.61;98529.84;1827344;77;21643;-66
2021/04/21 07:24:01;;;;;;;10.93;7.37;;;;;;;11.52;67.18;98528.11;1827310;78;21146;-66
2021/04/21 07:26:45;;;;;;;13.00;8.30;;;;;;;11.61;66.38;98522.95;1827154;78;21134;-66
2021/04/21 07:29:22;;;;;;;11.80;7.17;;;;;;;11.67;65.88;98528.55;1833354;78;21147;-65
2021/04/21 07:31:51;;;;;;;11.50;7.87;;;;;;;11.86;65.78;98531.59;1753507;81;21238;-66
2021/04/21 07:34:33;;;;;;;10.75;7.30;;;;;;;12.09;65.17;98534.14;1805388;78;21529;-66
2021/04/21 07:37:03;;;;;;;12.50;7.70;;;;;;;12.27;64.78;98532.38;1820724;78;21175;-66
2021/04/21 07:39:41;;;;;;;10.80;6.83;;;;;;;12.47;63.39;98528.44;1776731;79;21154;-66
2021/04/21 07:42:17;;;;;;;9.83;6.47;;;;;;;12.29;62.21;98531.95;1754349;82;21367;-65
2021/04/21 07:44:51;;;;;;;10.88;6.80;;;;;;;12.11;62.60;98536.70;1754345;80;21166;-65
2021/04/21 07:47:25;;;;;;;11.50;7.42;;;;;;;11.97;62.68;98542.35;1754791;81;21304;-65
2021/04/21 07:49:59;;;;;;;12.43;7.95;;;;;;;11.85;63.12;98550.94;1753908;81;21154;-65
2021/04/21 07:52:36;;;;;;;9.28;6.35;;;;;;;11.74;63.42;98548.37;1754453;82;21186;-66
2021/04/21 07:55:17;;;;;;;8.68;6.05;;;;;;;11.70;63.33;98546.63;1796919;79;21150;-63
2021/04/21 07:57:59;;;;;;;10.72;6.78;;;;;;;11.78;63.10;98545.33;1794848;80;21150;-67
2021/04/21 08:00:30;;;;;;;9.55;6.65;;;;;;;11.86;62.83;98547.51;1790401;79;21146;-66
2021/04/21 08:03:04;;;;;;;19.92;7.10;;;;;;;11.98;61.98;98545.35;1782550;79;21291;-66
2021/04/21 08:05:30;;;;;;;8.50;5.87;;;;;;;11.95;61.81;98550.95;1739583;82;21316;-66
2021/04/21 08:08:01;;;;;;;9.98;5.92;;;;;;;11.80;60.94;98554.81;1735482;82;21348;-66
2021/04/21 08:10:36;;;;;;;10.73;6.43;;;;;;;11.77;61.07;98559.13;1734252;82;21159;-66
2021/04/21 08:13:04;;;;;;;10.82;5.35;;;;;;;11.95;60.93;98554.83;1730820;82;21170;-66
2021/04/21 08:15:36;;;;;;;10.50;6.08;;;;;;;12.27;60.79;98562.98;1740088;81;21130;-66
2021/04/21 08:18:14;;;;;;;11.85;5.62;;;;;;;12.49;60.03;98560.32;1741361;82;21166;-65
2021/04/21 08:20:53;;;;;;;12.63;6.12;;;;;;;12.72;59.67;98559.83;1737839;82;21161;-66
2021/04/21 08:23:23;;;;;;;8.48;5.97;;;;;;;12.89;58.96;98553.70;1738646;82;21155;-66
2021/04/21 08:25:52;;;;;;;9.90;5.83;;;;;;;12.66;58.59;98566.74;1783774;79;21289;-66
2021/04/21 08:28:23;;;;;;;12.63;5.92;;;;;;;12.31;59.10;98562.13;1790077;79;21635;-65
2021/04/21 08:30:59;;;;;;;12.60;6.13;;;;;;;11.99;59.99;98571.22;1802353;79;21176;-65
2021/04/21 08:33:28;;;;;;;11.73;5.97;;;;;;;11.71;60.73;98569.05;1787792;79;21537;-65
2021/04/21 08:35:56;;;;;;;11.78;6.28;;;;;;;11.44;61.60;98568.16;1786551;79;21118;-65
2021/04/21 08:38:24;;;;;;;9.10;5.92;;;;;;;11.25;62.54;98569.02;1791757;78;21166;-66
2021/04/21 08:40:52;;;;;;;9.20;5.75;;;;;;;11.05;63.58;98568.53;1779650;78;21116;-66
2021/04/21 08:43:21;;;;;;;7.90;5.95;;;;;;;10.91;64.28;98575.36;1778822;79;21299;-66
2021/04/21 08:45:52;;;;;;;8.20;5.45;;;;;;;10.74;64.83;98583.49;1787918;79;21167;-65
2021/04/21 08:48:23;;;;;;;9.08;5.08;;;;;;;10.57;66.07;98582.97;1786511;79;21131;-65
2021/04/21 08:50:52;;;;;;;6.87;4.87;;;;;;;10.37;66.57;98582.01;1781831;79;21681;-65
2021/04/21 08:53:22;;;;;;;6.22;4.33;;;;;;;10.18;67.39;98578.44;1781514;80;21142;-66
2021/04/21 08:55:50;;;;;;;7.00;4.72;;;;;;;10.13;66.67;98580.98;1781085;78;21127;-66
2021/04/21 08:58:21;;;;;;;7.60;4.75;;;;;;;9.99;66.82;98580.88;1789304;79;21265;-66
2021/04/21 09:00:49;;;;;;;6.47;4.67;;;;;;;10.04;67.72;98574.46;1789838;79;21164;-66
2021/04/21 09:03:18;;;;;;;8.18;5.33;;;;;;;10.17;68.42;98568.96;1781680;78;21130;-66
2021/04/21 09:05:46;;;;;;;9.58;7.05;;;;;;;10.35;68.84;98570.81;1784502;79;21128;-67
2021/04/21 09:08:14;;;;;;;9.73;6.58;;;;;;;10.60;69.48;98570.08;1724290;83;21328;-67
2021/04/21 09:10:43;;;;;;;8.18;5.80;;;;;;;11.31;70.19;98570.30;1787105;79;21099;-68
2021/04/21 09:13:13;;;;;;;9.73;5.47;;;;;;;12.07;67.77;98578.97;1739292;82;21754;-66
2021/04/21 09:15:44;;;;;;;6.78;5.00;;;;;;;12.38;66.11;98568.98;1789910;79;21154;-67
2021/04/21 09:18:30;;;;;;;7.78;5.12;;;;;;;12.64;64.31;98574.50;1807981;79;21532;-67
2021/04/21 09:21:00;;;;;;;8.38;5.03;;;;;;;13.06;63.13;98570.02;1793879;79;21244;-67
2021/04/21 09:23:41;;;;;;;8.43;5.12;;;;;;;13.41;62.23;98563.80;1799484;79;21142;-67
2021/04/21 09:26:22;;;;;;;9.80;5.03;;;;;;;13.89;62.12;98568.14;1794259;79;21296;-67
2021/04/21 09:28:55;;;;;;;6.87;4.83;;;;;;;14.61;60.51;98574.41;1794254;79;21154;-66
2021/04/21 09:31:26;;;;;;;9.23;5.65;;;;;;;15.04;57.68;98576.02;1784296;79;21143;-66
2021/04/21 09:34:16;;;;;;;6.63;4.90;;;;;;;15.08;55.39;98574.23;1799188;79;21320;-66
2021/04/21 09:36:47;;;;;;;8.38;5.50;;;;;;;14.81;55.46;98576.32;1812491;79;21273;-66
2021/04/21 09:39:24;;;;;;;7.97;5.50;;;;;;;14.46;55.45;98580.14;1786154;79;21154;-68
2021/04/21 09:42:01;;;;;;;9.13;5.22;;;;;;;14.29;56.33;98576.86;1788487;79;21311;-66
2021/04/21 09:44:32;;;;;;;7.58;4.80;;;;;;;14.23;56.48;98578.23;1796169;79;21138;-66
2021/04/21 09:47:02;;;;;;;8.08;5.25;;;;;;;14.17;57.18;98577.86;1756866;81;21284;-66
2021/04/21 09:49:37;;;;;;;8.10;5.15;;;;;;;14.23;57.16;98579.53;1793911;79;21260;-66
2021/04/21 09:52:20;;;;;;;7.33;4.50;;;;;;;14.22;57.14;98581.69;1789136;79;21553;-66
2021/04/21 09:54:45;;;;;;;8.85;4.95;;;;;;;14.28;56.26;98578.60;1780889;80;21130;-66
2021/04/21 09:57:19;;;;;;;7.33;4.83;;;;;;;14.10;56.28;98578.80;1780016;79;21126;-67
2021/04/21 10:00:02;;;;;;;7.35;5.22;;;;;;;13.94;56.53;98588.42;1801724;79;21146;-66
2021/04/21 10:02:42;;;;;;;9.88;5.05;;;;;;;13.77;56.68;98583.39;1795424;79;21713;-66
2021/04/21 10:05:32;;;;;;;6.80;4.90;;;;;;;13.77;57.11;98579.95;1793584;79;21154;-66
2021/04/21 10:08:22;;;;;;;8.48;5.10;;;;;;;13.93;56.74;98584.56;1791305;79;21134;-66
2021/04/21 10:11:19;;;;;;;8.35;5.35;;;;;;;14.20;55.74;98577.83;1788993;79;21353;-66
2021/04/21 10:13:52;;;;;;;6.58;4.62;;;;;;;14.25;55.07;98575.19;1777500;79;21122;-67
2021/04/21 10:16:21;;;;;;;10.08;5.00;;;;;;;14.31;54.81;98575.12;1815138;79;21122;-66
2021/04/21 10:18:50;;;;;;;7.17;4.50;;;;;;;14.43;55.19;98576.29;1790839;78;21300;-67
2021/04/21 10:21:20;;;;;;;9.65;4.60;;;;;;;14.68;54.43;98586.00;1753742;80;21595;-67
2021/04/21 10:23:49;;;;;;;7.87;4.60;;;;;;;14.69;53.77;98582.95;1792827;79;21568;-66
2021/04/21 10:26:18;;;;;;;7.37;4.65;;;;;;;14.49;53.40;98581.41;1753278;80;21284;-67
2021/04/21 10:28:46;;;;;;;6.85;4.05;;;;;;;14.33;53.98;98585.05;1747538;80;21352;-66
2021/04/21 10:31:17;;;;;;;7.10;4.50;;;;;;;14.17;54.43;98585.65;1796012;78;21324;-68
2021/04/21 10:33:48;;;;;;;7.62;4.62;;;;;;;13.90;54.91;98597.13;1787817;80;21161;-66
2021/04/21 10:36:15;;;;;;;6.28;4.33;;;;;;;13.64;55.68;98593.00;1788664;79;21134;-68
2021/04/21 10:38:43;;;;;;;6.45;4.42;;;;;;;13.46;56.03;98595.73;1749038;80;21359;-66
2021/04/21 10:41:39;;;;;;;6.40;4.08;;;;;;;13.30;56.50;98587.61;1752757;80;21130;-67
2021/04/21 10:44:18;;;;;;;7.08;4.50;;;;;;;13.18;57.11;98591.98;1797454;78;21152;-66
2021/04/21 10:47:02;;;;;;;7.85;4.33;;;;;;;13.16;57.78;98591.12;1797097;78;21154;-66
2021/04/21 10:49:58;;;;;;;6.00;3.60;;;;;;;12.96;58.10;98589.91;1800879;78;21504;-65
2021/04/21 10:52:31;;;;;;;5.80;3.50;;;;;;;12.84;58.15;98588.67;1755067;80;21190;-67
2021/04/21 10:55:14;;;;;;;4.70;3.33;;;;;;;12.88;58.40;98591.69;1798067;79;21154;-66
2021/04/21 10:58:03;;;;;;;6.40;4.05;;;;;;;13.09;57.93;98588.56;1788781;80;21264;-66
2021/04/21 11:00:35;;;;;;;5.33;3.67;;;;;;;13.34;57.21;98591.48;1790551;79;21122;-67
2021/04/21 11:03:08;;;;;;;;;;;;;;;13.75;56.42;98585.58;1799200;79;21304;-66
2021/04/21 11:05:43;;;;;;;6.95;3.45;;;;;;;13.92;54.82;98588.02;1779726;79;20216;-65
2021/04/21 11:08:21;;;;;;;5.60;3.60;;;;;;;13.99;54.85;98582.79;1781796;78;21170;-66
2021/04/21 11:10:54;;;;;;;6.80;3.87;;;;;;;14.28;54.35;98586.39;1769983;80;21150;-65
2021/04/21 11:13:39;;;;;;;6.67;3.60;;;;;;;14.54;53.00;98581.39;1785991;79;21169;-66
2021/04/21 11:16:26;;;;;;;5.90;3.42;;;;;;;14.40;51.16;98580.22;1780897;79;21324;-65
2021/04/21 11:18:54;;;;;;;6.70;3.37;;;;;;;14.18;50.45;98580.02;1798432;78;21126;-65
2021/04/21 11:21:26;;;;;;;7.42;4.10;;;;;;;13.90;50.43;98577.67;1802837;78;21133;-66
2021/04/21 11:24:05;;;;;;;5.67;3.87;;;;;;;13.81;51.12;98575.14;1765831;80;21190;-66
2021/04/21 11:26:43;;;;;;;5.92;3.45;;;;;;;13.97;51.21;98571.56;1811706;79;21130;-65
2021/04/21 11:29:30;;;;;;;8.25;3.75;;;;;;;14.05;51.02;98576.23;1785201;79;21320;-65
2021/04/21 11:32:06;;;;;;;5.30;3.20;;;;;;;14.14;51.07;98572.67;1781428;79;21288;-65
2021/04/21 11:34:36;;;;;;;7.08;3.70;;;;;;;14.49;50.88;98577.95;1791775;78;21201;-66
2021/04/21 11:37:19;;;;;;;7.25;3.42;;;;;;;14.65;50.61;98579.52;1791843;79;21178;-65
2021/04/21 11:40:02;;;;;;;5.28;3.30;;;;;;;14.67;50.13;98583.41;1794034;78;21276;-66
2021/04/21 11:42:59;;;;;;;7.78;3.80;;;;;;;14.68;50.05;98582.52;1797376;78;21240;-66
2021/04/21 11:45:31;;;;;;;6.72;3.80;;;;;;;14.64;49.53;98580.41;1827804;78;21264;-65
2021/04/21 11:48:08;;;;;;;5.33;3.90;;;;;;;14.62;49.38;98582.60;1779412;79;21281;-66
2021/04/21 11:50:38;;;;;;;6.97;4.05;;;;;;;14.68;49.69;98585.11;1832891;77;21158;-66
2021/04/21 11:53:30;;;;;;;5.33;3.70;;;;;;;14.65;49.36;98583.86;1822709;77;21142;-66
2021/04/21 11:55:59;;;;;;;5.65;3.80;;;;;;;14.69;50.00;98585.55;1744269;81;21172;-65
2021/04/21 11:58:30;;;;;;;6.60;3.30;;;;;;;14.97;49.34;98584.33;1750082;81;21726;-65
2021/04/21 12:01:04;;;;;;;8.63;3.87;;;;;;;15.09;47.88;98580.72;1747126;81;21308;-66
2021/04/21 12:03:46;;;;;;;6.25;4.20;;;;;;;15.09;47.83;98585.06;1744810;82;21122;-65
2021/04/21 12:06:17;;;;;;;6.37;3.45;;;;;;;14.96;48.28;98583.92;1708625;83;21383;-66
2021/04/21 12:08:49;;;;;;;6.87;4.25;;;;;;;14.87;49.00;98579.28;1709860;83;21700;-66
2021/04/21 12:11:37;;;;;;;7.17;4.75;;;;;;;14.86;49.30;98587.52;1744761;82;22265;-65
2021/04/21 12:13:58;;;;;;;6.75;4.47;;;;;;;14.80;49.28;98584.97;1735698;82;21342;-66
2021/04/21 12:16:28;;;;;;;8.68;4.75;;;;;;;14.60;49.68;98577.86;1743084;82;21162;-67
2021/04/21 12:18:59;;;;;;;5.72;4.30;;;;;;;14.46;49.99;98578.84;1707924;83;21189;-67